createdAt,value
2022-10-06T00:01:16.702Z,0.60
2022-10-06T00:04:11.208Z,0.47
2022-10-06T00:07:05.707Z,0.65
2022-10-06T00:10:00.129Z,0.45
2022-10-06T00:12:54.870Z,0.50
2022-10-06T00:15:49.411Z,0.88
2022-10-06T00:18:43.882Z,0.70
2022-10-06T00:21:38.643Z,0.47
2022-10-06T00:24:33.426Z,0.73
2022-10-06T00:27:28.003Z,0.60
2022-10-06T00:30:27.846Z,0.60
2022-10-06T00:33:22.530Z,0.80
2022-10-06T00:36:16.914Z,0.80
2022-10-06T00:39:11.679Z,0.50
2022-10-06T00:42:06.480Z,0.57
2022-10-06T00:45:05.949Z,0.77
2022-10-06T00:48:05.355Z,0.60
2022-10-06T00:51:00.975Z,0.65
2022-10-06T00:53:55.684Z,0.65
2022-10-06T00:56:50.355Z,0.60
2022-10-06T00:59:44.873Z,0.50
2022-10-06T01:03:03.464Z,0.63
2022-10-06T01:05:59.783Z,0.50
2022-10-06T01:08:55.600Z,0.65
2022-10-06T01:11:52.822Z,0.50
2022-10-06T01:14:47.272Z,0.40
2022-10-06T01:18:14.502Z,0.60
2022-10-06T01:21:24.985Z,0.50
2022-10-06T01:24:20.417Z,0.30
2022-10-06T01:27:16.140Z,0.40
2022-10-06T01:30:14.170Z,0.40
2022-10-06T01:33:08.953Z,0.70
2022-10-06T01:36:03.379Z,0.70
2022-10-06T01:38:57.842Z,0.50
2022-10-06T01:41:52.312Z,0.50
2022-10-06T01:44:46.752Z,0.32
2022-10-06T01:47:41.312Z,0.40
2022-10-06T01:50:35.905Z,0.38
2022-10-06T01:53:31.138Z,0.60
2022-10-06T01:56:26.568Z,0.40
2022-10-06T01:59:21.090Z,0.50
2022-10-06T02:02:15.594Z,0.50
2022-10-06T02:05:10.939Z,0.30
2022-10-06T02:08:06.011Z,0.30
2022-10-06T02:11:01.059Z,0.47
2022-10-06T02:13:55.553Z,0.40
2022-10-06T02:16:50.096Z,0.60
2022-10-06T02:19:44.498Z,0.28
2022-10-06T02:22:44.944Z,0.50
2022-10-06T02:25:39.382Z,0.40
2022-10-06T02:28:34.062Z,0.25
2022-10-06T02:31:28.809Z,0.30
2022-10-06T02:34:23.284Z,0.57
2022-10-06T02:37:18.393Z,0.50
2022-10-06T02:40:12.938Z,0.38
2022-10-06T02:43:07.384Z,0.20
2022-10-06T02:46:04.769Z,0.40
2022-10-06T02:48:59.197Z,0.38
2022-10-06T02:51:53.740Z,0.25
2022-10-06T02:54:48.407Z,0.43
2022-10-06T02:57:43.895Z,0.40
2022-10-06T03:00:38.355Z,0.30
2022-10-06T03:03:34.009Z,0.47
2022-10-06T03:06:31.180Z,0.30
2022-10-06T03:09:26.366Z,0.40
2022-10-06T03:12:20.944Z,0.30
2022-10-06T03:15:15.380Z,0.50
2022-10-06T03:18:10.074Z,0.30
2022-10-06T03:21:04.458Z,0.50
2022-10-06T03:24:00.156Z,0.40
2022-10-06T03:26:54.889Z,0.20
2022-10-06T03:29:49.323Z,0.40
2022-10-06T03:32:43.710Z,0.60
2022-10-06T03:35:38.089Z,0.38
2022-10-06T03:38:33.916Z,0.28
2022-10-06T03:41:31.160Z,0.20
2022-10-06T03:44:25.548Z,0.20
2022-10-06T03:47:20.586Z,0.30
2022-10-06T03:50:15.030Z,0.30
2022-10-06T03:53:09.509Z,0.70
2022-10-06T03:56:14.333Z,0.45
2022-10-06T03:59:13.297Z,0.32
2022-10-06T04:02:07.847Z,0.10
2022-10-06T04:05:02.574Z,0.20
2022-10-06T04:07:57.191Z,0.40
2022-10-06T04:10:52.124Z,0.50
2022-10-06T04:13:47.600Z,0.30
2022-10-06T04:16:48.100Z,0.40
2022-10-06T04:19:42.935Z,0.35
2022-10-06T04:22:37.387Z,0.40
2022-10-06T04:25:31.828Z,0.47
2022-10-06T04:28:26.822Z,0.38
2022-10-06T04:31:24.123Z,0.30
2022-10-06T04:34:18.688Z,0.30
2022-10-06T04:37:13.183Z,0.32
2022-10-06T04:40:08.297Z,0.40
2022-10-06T04:43:03.927Z,0.30
2022-10-06T04:46:13.115Z,0.30
2022-10-06T04:52:15.483Z,0.43
2022-10-06T04:55:10.478Z,0.30
2022-10-06T04:58:04.968Z,0.50
2022-10-06T05:00:59.671Z,0.30
2022-10-06T05:03:57.294Z,0.40
2022-10-06T05:06:52.107Z,0.43
2022-10-06T05:09:47.357Z,0.40
2022-10-06T05:12:41.873Z,0.22
2022-10-06T05:15:36.591Z,0.30
2022-10-06T05:18:32.538Z,0.30
2022-10-06T05:21:29.731Z,0.20
2022-10-06T05:24:24.510Z,0.43
2022-10-06T05:27:19.043Z,0.40
2022-10-06T05:30:13.953Z,0.35
2022-10-06T05:33:09.783Z,0.35
2022-10-06T05:36:07.508Z,0.32
2022-10-06T05:39:04.009Z,0.38
2022-10-06T05:41:58.605Z,0.30
2022-10-06T05:44:53.239Z,0.32
2022-10-06T05:47:47.883Z,0.20
2022-10-06T05:50:42.873Z,0.35
2022-10-06T05:53:38.836Z,0.40
2022-10-06T05:56:38.865Z,0.40
2022-10-06T05:59:33.533Z,0.50
2022-10-06T06:02:28.444Z,0.40
2022-10-06T06:05:23.084Z,0.43
2022-10-06T06:08:17.936Z,0.40
2022-10-06T06:11:13.079Z,0.43
2022-10-06T06:14:15.465Z,0.28
2022-10-06T06:17:10.656Z,0.43
2022-10-06T06:20:05.144Z,0.70
2022-10-06T06:22:59.570Z,0.40
2022-10-06T06:26:02.738Z,0.50
2022-10-06T06:29:05.566Z,0.57
2022-10-06T06:32:01.011Z,0.63
2022-10-06T06:34:55.387Z,0.50
2022-10-06T06:37:50.384Z,0.55
2022-10-06T06:40:45.653Z,0.35
2022-10-06T06:43:41.769Z,0.40
2022-10-06T06:46:37.725Z,0.30
2022-10-06T06:49:32.382Z,0.22
2022-10-06T06:52:27.320Z,0.20
2022-10-06T06:55:21.872Z,0.30
2022-10-06T06:58:16.370Z,0.55
2022-10-06T07:01:16.206Z,0.40
2022-10-06T07:04:10.646Z,0.20
2022-10-06T07:07:05.117Z,0.50
2022-10-06T07:09:59.498Z,0.40
2022-10-06T07:12:53.897Z,0.40
2022-10-06T07:16:09.393Z,0.40
2022-10-06T07:19:25.155Z,0.55
2022-10-06T07:22:40.766Z,0.30
2022-10-06T07:25:35.253Z,0.35
2022-10-06T07:28:31.893Z,0.63
2022-10-06T07:31:26.425Z,0.30
2022-10-06T07:34:20.894Z,0.25
2022-10-06T07:37:15.318Z,0.60
2022-10-06T07:40:11.384Z,0.28
2022-10-06T07:43:06.032Z,0.32
2022-10-06T07:46:00.493Z,0.47
2022-10-06T07:48:55.149Z,0.30
2022-10-06T07:51:49.533Z,0.28
2022-10-06T07:54:46.393Z,0.30
2022-10-06T07:57:40.766Z,0.30
2022-10-06T08:00:35.386Z,0.45
2022-10-06T08:03:29.960Z,0.30
2022-10-06T08:06:24.998Z,0.20
2022-10-06T08:09:19.393Z,0.30
2022-10-06T08:12:32.134Z,0.40
2022-10-06T08:15:26.561Z,0.30
2022-10-06T08:18:41.374Z,0.50
2022-10-06T08:21:37.134Z,0.50
2022-10-06T08:24:54.099Z,0.60
2022-10-06T08:27:48.973Z,0.47
2022-10-06T08:30:45.902Z,0.60
2022-10-06T08:33:45.054Z,0.68
2022-10-06T08:36:39.615Z,0.70
2022-10-06T08:39:35.324Z,0.55
2022-10-06T08:42:43.560Z,0.47
2022-10-06T08:45:45.923Z,0.60
2022-10-06T08:48:41.141Z,0.30
2022-10-06T08:51:45.661Z,0.65
2022-10-06T08:55:04.624Z,0.77
2022-10-06T08:58:15.287Z,0.70
2022-10-06T09:01:47.065Z,0.90
2022-10-06T09:04:41.822Z,0.45
2022-10-06T09:07:57.726Z,0.60
2022-10-06T09:11:07.189Z,0.70
2022-10-06T09:14:25.789Z,0.80
2022-10-06T09:17:51.212Z,0.77
2022-10-06T09:20:55.600Z,0.80
2022-10-06T09:23:55.238Z,1.00
2022-10-06T09:26:52.639Z,0.77
2022-10-06T09:29:49.945Z,0.82
2022-10-06T09:32:58.997Z,0.70
2022-10-06T09:36:11.042Z,0.70
2022-10-06T09:39:06.469Z,0.90
2022-10-06T09:42:04.844Z,0.85
2022-10-06T09:45:18.928Z,0.75
2022-10-06T09:48:24.730Z,1.10
2022-10-06T09:51:20.663Z,1.20
2022-10-06T09:54:16.627Z,0.93
2022-10-06T09:57:23.098Z,1.10
2022-10-06T10:00:44.113Z,0.90
2022-10-06T10:04:08.399Z,0.70
2022-10-06T10:07:26.673Z,0.70
2022-10-06T10:10:26.073Z,0.70
2022-10-06T10:13:30.751Z,0.85
2022-10-06T10:16:35.744Z,0.85
2022-10-06T10:19:40.576Z,0.60
2022-10-06T10:22:44.064Z,0.70
2022-10-06T10:26:11.153Z,0.60
2022-10-06T10:29:44.856Z,0.60
2022-10-06T10:33:01.554Z,0.70
2022-10-06T10:35:58.363Z,0.50
2022-10-06T10:38:54.015Z,0.40
2022-10-06T10:41:54.543Z,0.50
2022-10-06T10:45:05.316Z,0.40
2022-10-06T10:48:01.129Z,0.50
2022-10-06T10:51:18.554Z,0.45
2022-10-06T10:54:21.542Z,0.50
2022-10-06T10:57:19.651Z,0.45
2022-10-06T11:00:28.759Z,0.47
2022-10-06T11:03:23.294Z,0.50
2022-10-06T11:06:30.100Z,0.40
2022-10-06T11:10:10.482Z,0.73
2022-10-06T11:13:08.914Z,0.65
2022-10-06T11:16:30.936Z,0.60
2022-10-06T11:19:57.345Z,0.52
2022-10-06T11:23:15.986Z,0.55
2022-10-06T11:26:27.116Z,0.30
2022-10-06T11:29:37.180Z,1.00
2022-10-06T11:32:40.362Z,0.50
2022-10-06T11:35:41.214Z,0.55
2022-10-06T11:38:54.193Z,0.45
2022-10-06T11:41:59.985Z,0.40
2022-10-06T11:45:15.834Z,0.50
2022-10-06T11:48:20.985Z,0.90
2022-10-06T11:51:27.625Z,0.82
2022-10-06T11:54:46.869Z,0.40
2022-10-06T11:58:41.926Z,0.40
2022-10-06T12:01:38.979Z,0.70
2022-10-06T12:07:47.764Z,0.73
2022-10-06T12:10:52.114Z,0.70
2022-10-06T12:17:26.563Z,0.90
2022-10-06T12:21:07.656Z,0.73
2022-10-06T12:24:07.560Z,0.68
2022-10-06T12:27:12.942Z,0.80
2022-10-06T12:30:29.554Z,0.50
2022-10-06T12:33:41.178Z,0.50
2022-10-06T12:36:35.757Z,0.52
2022-10-06T12:39:30.186Z,0.60
2022-10-06T12:42:30.607Z,0.77
2022-10-06T12:45:25.067Z,0.68
2022-10-06T12:48:22.550Z,0.60
2022-10-06T12:51:35.610Z,0.60
2022-10-06T12:54:48.961Z,0.60
2022-10-06T12:57:54.792Z,0.80
2022-10-06T13:00:49.890Z,0.63
2022-10-06T13:03:50.614Z,0.73
2022-10-06T13:06:51.273Z,0.70
2022-10-06T13:09:46.992Z,0.63
2022-10-06T13:12:43.254Z,0.80
2022-10-06T13:15:42.710Z,0.60
2022-10-06T13:18:37.269Z,0.60
2022-10-06T13:21:32.881Z,0.60
2022-10-06T13:24:29.090Z,0.80
2022-10-06T13:27:23.603Z,0.50
2022-10-06T13:30:24.203Z,0.60
2022-10-06T13:33:18.939Z,0.73
2022-10-06T13:36:13.916Z,0.60
2022-10-06T13:39:15.292Z,0.60
2022-10-06T13:42:24.661Z,0.70
2022-10-06T13:45:19.226Z,0.70
2022-10-06T13:48:20.597Z,0.60
2022-10-06T13:51:31.081Z,0.80
2022-10-06T13:54:31.451Z,0.90
2022-10-06T13:57:53.136Z,0.70
2022-10-06T14:00:51.128Z,0.60
2022-10-06T14:03:45.534Z,0.70
2022-10-06T14:06:40.778Z,0.60
2022-10-06T14:09:36.514Z,0.60
2022-10-06T14:12:31.151Z,0.50
2022-10-06T14:15:28.610Z,0.80
2022-10-06T14:18:42.192Z,0.60
2022-10-06T14:21:46.989Z,0.77
2022-10-06T14:24:52.907Z,0.68
2022-10-06T14:27:47.583Z,0.80
2022-10-06T14:30:42.095Z,0.82
2022-10-06T14:33:36.574Z,1.00
2022-10-06T14:36:38.425Z,0.60
2022-10-06T14:39:32.876Z,0.98
2022-10-06T14:42:27.369Z,0.75
2022-10-06T14:45:21.780Z,1.10
2022-10-06T14:48:16.672Z,0.85
2022-10-06T14:51:11.914Z,0.98
2022-10-06T14:54:08.727Z,1.20
2022-10-06T14:57:03.151Z,0.80
2022-10-06T14:59:57.915Z,0.90
2022-10-06T15:02:52.703Z,0.70
2022-10-06T15:06:19.201Z,0.82
2022-10-06T15:09:14.354Z,0.98
2022-10-06T15:12:08.951Z,0.80
2022-10-06T15:15:03.326Z,0.80
2022-10-06T15:17:57.736Z,0.88
2022-10-06T15:20:52.654Z,1.63
2022-10-06T15:23:49.526Z,1.02
2022-10-06T15:27:03.016Z,1.10
2022-10-06T15:29:59.856Z,1.00
2022-10-06T15:32:54.268Z,1.10
2022-10-06T15:36:16.009Z,1.20
2022-10-06T15:39:19.237Z,1.25
2022-10-06T15:42:16.081Z,1.20
2022-10-06T15:45:10.988Z,1.08
2022-10-06T15:48:06.012Z,1.17
2022-10-06T15:51:00.381Z,1.38
2022-10-06T15:53:54.880Z,1.30
2022-10-06T15:56:50.216Z,1.30
2022-10-06T15:59:45.312Z,1.27
2022-10-06T16:02:39.792Z,1.30
2022-10-06T16:05:49.738Z,1.35
2022-10-06T16:08:44.181Z,1.13
2022-10-06T16:11:38.769Z,0.80
2022-10-06T16:14:33.907Z,0.68
2022-10-06T16:17:28.383Z,1.20
2022-10-06T16:20:22.781Z,1.35
2022-10-06T16:23:17.186Z,0.88
2022-10-06T16:26:11.584Z,0.70
2022-10-06T16:29:06.901Z,0.68
2022-10-06T16:32:01.400Z,0.40
2022-10-06T16:34:55.977Z,0.43
2022-10-06T16:37:51.210Z,0.80
2022-10-06T16:40:45.795Z,0.40
2022-10-06T16:43:43.204Z,0.30
2022-10-06T16:46:38.728Z,0.40
2022-10-06T16:49:33.215Z,0.45
2022-10-06T16:52:27.637Z,0.50
2022-10-06T16:55:22.016Z,0.40
2022-10-06T16:58:16.488Z,0.30
2022-10-06T17:01:12.371Z,0.65
2022-10-06T17:04:12.543Z,0.40
2022-10-06T17:07:07.033Z,0.45
2022-10-06T17:10:19.678Z,0.50
2022-10-06T17:13:15.250Z,0.50
2022-10-06T17:16:13.695Z,0.65
2022-10-06T17:19:08.860Z,0.55
2022-10-06T17:22:03.244Z,0.30
2022-10-06T17:24:57.620Z,0.30
2022-10-06T17:27:52.236Z,0.70
2022-10-06T17:30:54.193Z,0.70
2022-10-06T17:33:49.196Z,0.52
2022-10-06T17:36:50.169Z,1.13
2022-10-06T17:39:47.025Z,0.88
2022-10-06T17:42:42.669Z,1.17
2022-10-06T17:45:40.707Z,1.00
2022-10-06T17:48:35.378Z,0.98
2022-10-06T17:51:30.432Z,1.40
2022-10-06T17:54:28.107Z,1.27
2022-10-06T17:57:22.677Z,1.15
2022-10-06T18:00:19.422Z,1.58
2022-10-06T18:03:14.091Z,1.20
2022-10-06T18:06:11.741Z,1.38
2022-10-06T18:09:08.041Z,1.30
2022-10-06T18:12:03.838Z,1.08
2022-10-06T18:14:59.658Z,1.13
2022-10-06T18:17:54.516Z,1.63
2022-10-06T18:20:49.491Z,1.63
2022-10-06T18:23:44.762Z,1.52
2022-10-06T18:26:43.008Z,0.88
2022-10-06T18:29:39.384Z,1.75
2022-10-06T18:34:32.700Z,1.30
2022-10-06T18:39:10.318Z,1.60
2022-10-06T18:42:06.525Z,1.30
2022-10-06T18:45:19.059Z,1.55
2022-10-06T18:48:31.527Z,1.25
2022-10-06T18:51:28.461Z,1.20
2022-10-06T18:54:31.390Z,1.40
2022-10-06T18:57:27.849Z,2.22
2022-10-06T19:00:22.357Z,1.88
2022-10-06T19:03:16.811Z,1.55
2022-10-06T19:06:12.201Z,1.95
2022-10-06T19:09:08.013Z,1.52
2022-10-06T19:12:03.057Z,1.95
2022-10-06T19:14:58.921Z,1.40
2022-10-06T19:17:53.277Z,2.13
2022-10-06T19:20:56.045Z,1.50
2022-10-06T19:23:51.479Z,1.77
2022-10-06T19:26:49.147Z,2.55
2022-10-06T19:29:47.176Z,1.50
2022-10-06T19:32:41.978Z,2.25
2022-10-06T19:35:36.305Z,2.10
2022-10-06T19:38:31.208Z,1.33
2022-10-06T19:41:47.125Z,1.50
2022-10-06T19:44:43.256Z,1.90
2022-10-06T19:47:37.750Z,1.60
2022-10-06T19:50:32.232Z,1.80
2022-10-06T19:53:26.513Z,1.83
2022-10-06T19:56:22.481Z,1.25
2022-10-06T19:59:25.445Z,1.75
2022-10-06T20:02:20.047Z,1.70
2022-10-06T20:05:18.760Z,1.65
2022-10-06T20:08:13.112Z,1.98
2022-10-06T20:11:26.216Z,1.40
2022-10-06T20:14:23.621Z,1.90
2022-10-06T20:17:18.749Z,1.58
2022-10-06T20:20:13.427Z,1.38
2022-10-06T20:23:08.548Z,1.73
2022-10-06T20:26:14.675Z,1.67
2022-10-06T20:29:12.392Z,1.45
2022-10-06T20:32:07.358Z,1.35
2022-10-06T20:35:03.899Z,1.60
2022-10-06T20:37:58.270Z,1.95
2022-10-06T20:40:52.556Z,1.48
2022-10-06T20:43:46.953Z,1.30
2022-10-06T20:46:42.528Z,1.33
2022-10-06T20:49:36.968Z,1.70
2022-10-06T20:52:31.441Z,1.35
2022-10-06T20:55:26.412Z,1.40
2022-10-06T20:58:20.737Z,1.20
2022-10-06T21:01:16.191Z,2.20
2022-10-06T21:04:11.102Z,1.48
2022-10-06T21:07:07.178Z,1.90
2022-10-06T21:10:01.497Z,1.52
2022-10-06T21:12:57.022Z,2.05
2022-10-06T21:15:51.645Z,2.20
2022-10-06T21:18:48.248Z,1.98
2022-10-06T21:21:44.367Z,1.35
2022-10-06T21:24:38.860Z,1.65
2022-10-06T21:27:33.196Z,1.50
2022-10-06T21:30:27.600Z,1.92
2022-10-06T21:33:26.224Z,1.88
2022-10-06T21:36:22.922Z,2.15
2022-10-06T21:39:17.274Z,1.88
2022-10-06T21:42:11.666Z,1.67
2022-10-06T21:45:06.275Z,1.98
2022-10-06T21:48:00.658Z,1.55
2022-10-06T21:50:55.849Z,1.67
2022-10-06T21:53:50.209Z,1.67
2022-10-06T21:56:44.715Z,1.48
2022-10-06T21:59:39.082Z,1.27
2022-10-06T22:02:33.510Z,1.60
2022-10-06T22:05:27.868Z,1.92
2022-10-06T22:08:22.156Z,1.90
2022-10-06T22:11:18.434Z,1.30
2022-10-06T22:14:17.979Z,1.75
2022-10-06T22:17:12.279Z,1.40
2022-10-06T22:20:07.043Z,1.73
2022-10-06T22:23:04.732Z,1.20
2022-10-06T22:25:59.966Z,1.30
2022-10-06T22:28:56.167Z,1.85
2022-10-06T22:31:51.059Z,1.35
2022-10-06T22:34:45.407Z,1.50
2022-10-06T22:37:39.740Z,1.23
2022-10-06T22:40:34.254Z,1.65
2022-10-06T22:43:29.240Z,1.27
2022-10-06T22:46:23.623Z,1.70
2022-10-06T22:49:18.018Z,1.25
2022-10-06T22:52:12.310Z,1.35
2022-10-06T22:55:07.079Z,1.20
2022-10-06T22:58:01.527Z,1.20
2022-10-06T23:00:56.306Z,1.10
2022-10-06T23:03:50.864Z,1.23
2022-10-06T23:06:45.197Z,1.00
2022-10-06T23:09:39.707Z,1.10
2022-10-06T23:12:33.980Z,1.23
2022-10-06T23:15:29.181Z,1.13
2022-10-06T23:18:23.497Z,1.10
2022-10-06T23:21:25.168Z,1.25
2022-10-06T23:24:19.587Z,1.05
2022-10-06T23:27:15.584Z,1.00
2022-10-06T23:30:10.531Z,1.13
2022-10-06T23:33:05.735Z,1.10
2022-10-06T23:36:02.147Z,1.10
2022-10-06T23:38:57.137Z,1.10
2022-10-06T23:41:51.471Z,1.13
2022-10-06T23:44:45.883Z,1.00
2022-10-06T23:47:40.175Z,0.80
2022-10-06T23:50:34.489Z,1.42
2022-10-06T23:53:30.242Z,1.38
2022-10-06T23:56:24.815Z,1.00
2022-10-06T23:59:19.170Z,1.30
